Metar z pełnej godziny Komunikat METAR ze strony awiacja.imgw.pl Metar G00 EPZG METAR EPZG 241900Z 14003KT CAVOK 16/10 Q1012 =